sensor_id;sensor_type;location;lat;lon;timestamp;temperature;humidity
3246;DHT22;1635;48.000;10.582;2022-11-18T00:01:31;6.90;99.90
3246;DHT22;1635;48.000;10.582;2022-11-18T00:03:59;6.90;99.90
3246;DHT22;1635;48.000;10.582;2022-11-18T00:06:31;6.90;99.90
3246;DHT22;1635;48.000;10.582;2022-11-18T00:08:59;6.90;99.90
3246;DHT22;1635;48.000;10.582;2022-11-18T00:11:34;6.90;99.90
3246;DHT22;1635;48.000;10.582;2022-11-18T00:14:22;6.90;99.90
3246;DHT22;1635;48.000;10.582;2022-11-18T00:16:55;6.80;99.90
3246;DHT22;1635;48.000;10.582;2022-11-18T00:19:29;6.80;99.90
3246;DHT22;1635;48.000;10.582;2022-11-18T00:22:08;6.80;99.90
3246;DHT22;1635;48.000;10.582;2022-11-18T00:24:38;6.80;99.90
3246;DHT22;1635;48.000;10.582;2022-11-18T00:27:06;6.80;99.90
3246;DHT22;1635;48.000;10.582;2022-11-18T00:29:34;6.80;99.90
3246;DHT22;1635;48.000;10.582;2022-11-18T00:32:03;6.80;99.90
3246;DHT22;1635;48.000;10.582;2022-11-18T00:34:32;6.80;99.90
3246;DHT22;1635;48.000;10.582;2022-11-18T00:36:58;6.80;99.90
3246;DHT22;1635;48.000;10.582;2022-11-18T00:39:31;6.80;99.90
3246;DHT22;1635;48.000;10.582;2022-11-18T00:41:58;6.80;99.90
3246;DHT22;1635;48.000;10.582;2022-11-18T00:44:46;6.80;99.90
3246;DHT22;1635;48.000;10.582;2022-11-18T00:47:13;6.80;99.90
3246;DHT22;1635;48.000;10.582;2022-11-18T00:49:41;6.80;99.90
3246;DHT22;1635;48.000;10.582;2022-11-18T00:52:08;6.80;99.90
3246;DHT22;1635;48.000;10.582;2022-11-18T00:54:36;6.80;99.90
3246;DHT22;1635;48.000;10.582;2022-11-18T00:57:04;6.80;99.90
3246;DHT22;1635;48.000;10.582;2022-11-18T00:59:31;6.90;99.90
3246;DHT22;1635;48.000;10.582;2022-11-18T01:02:00;6.90;99.90
3246;DHT22;1635;48.000;10.582;2022-11-18T01:04:36;6.90;99.90
3246;DHT22;1635;48.000;10.582;2022-11-18T01:07:05;6.90;99.90
3246;DHT22;1635;48.000;10.582;2022-11-18T01:09:33;6.90;99.90
3246;DHT22;1635;48.000;10.582;2022-11-18T01:12:04;6.90;99.90
3246;DHT22;1635;48.000;10.582;2022-11-18T01:14:49;6.90;99.90
3246;DHT22;1635;48.000;10.582;2022-11-18T01:17:17;6.90;99.90
3246;DHT22;1635;48.000;10.582;2022-11-18T01:19:45;6.90;99.90
3246;DHT22;1635;48.000;10.582;2022-11-18T01:22:12;6.90;99.90
3246;DHT22;1635;48.000;10.582;2022-11-18T01:24:38;6.90;99.90
3246;DHT22;1635;48.000;10.582;2022-11-18T01:27:05;6.90;99.90
3246;DHT22;1635;48.000;10.582;2022-11-18T01:29:33;6.90;99.90
3246;DHT22;1635;48.000;10.582;2022-11-18T01:32:05;6.80;99.90
3246;DHT22;1635;48.000;10.582;2022-11-18T01:34:52;6.80;99.90
3246;DHT22;1635;48.000;10.582;2022-11-18T01:37:20;6.80;99.90
3246;DHT22;1635;48.000;10.582;2022-11-18T01:39:47;6.80;99.90
3246;DHT22;1635;48.000;10.582;2022-11-18T01:42:16;6.70;99.90
3246;DHT22;1635;48.000;10.582;2022-11-18T01:47:33;6.70;99.90
3246;DHT22;1635;48.000;10.582;2022-11-18T01:50:04;6.70;99.90
3246;DHT22;1635;48.000;10.582;2022-11-18T01:52:34;6.70;99.90
3246;DHT22;1635;48.000;10.582;2022-11-18T01:55:18;6.70;99.90
3246;DHT22;1635;48.000;10.582;2022-11-18T01:57:51;6.70;99.90
3246;DHT22;1635;48.000;10.582;2022-11-18T02:00:21;6.70;99.90
3246;DHT22;1635;48.000;10.582;2022-11-18T02:02:49;6.70;99.90
3246;DHT22;1635;48.000;10.582;2022-11-18T02:05:17;6.60;99.90
3246;DHT22;1635;48.000;10.582;2022-11-18T02:07:46;6.70;99.90
3246;DHT22;1635;48.000;10.582;2022-11-18T02:10:19;6.60;99.90
3246;DHT22;1635;48.000;10.582;2022-11-18T02:12:49;6.60;99.90
3246;DHT22;1635;48.000;10.582;2022-11-18T02:15:23;6.60;99.90
3246;DHT22;1635;48.000;10.582;2022-11-18T02:18:03;6.60;99.90
3246;DHT22;1635;48.000;10.582;2022-11-18T02:20:43;6.60;99.90
3246;DHT22;1635;48.000;10.582;2022-11-18T02:23:49;6.60;99.90
3246;DHT22;1635;48.000;10.582;2022-11-18T02:29:20;6.60;99.90
3246;DHT22;1635;48.000;10.582;2022-11-18T02:32:04;6.60;99.90
3246;DHT22;1635;48.000;10.582;2022-11-18T02:34:53;6.50;99.90
3246;DHT22;1635;48.000;10.582;2022-11-18T02:37:30;6.60;99.90
3246;DHT22;1635;48.000;10.582;2022-11-18T02:42:53;6.60;99.90
3246;DHT22;1635;48.000;10.582;2022-11-18T02:45:22;6.60;99.90
3246;DHT22;1635;48.000;10.582;2022-11-18T02:47:51;6.60;99.90
3246;DHT22;1635;48.000;10.582;2022-11-18T02:50:23;6.60;99.90
3246;DHT22;1635;48.000;10.582;2022-11-18T02:52:55;6.60;99.90
3246;DHT22;1635;48.000;10.582;2022-11-18T02:55:27;6.60;99.90
3246;DHT22;1635;48.000;10.582;2022-11-18T02:57:56;6.60;99.90
3246;DHT22;1635;48.000;10.582;2022-11-18T03:00:24;6.60;99.90
3246;DHT22;1635;48.000;10.582;2022-11-18T03:02:52;6.60;99.90
3246;DHT22;1635;48.000;10.582;2022-11-18T03:05:45;6.60;99.90
3246;DHT22;1635;48.000;10.582;2022-11-18T03:08:18;6.70;99.90
3246;DHT22;1635;48.000;10.582;2022-11-18T03:11:12;6.70;99.90
3246;DHT22;1635;48.000;10.582;2022-11-18T03:16:51;6.70;99.90
3246;DHT22;1635;48.000;10.582;2022-11-18T03:20:07;6.70;99.90
3246;DHT22;1635;48.000;10.582;2022-11-18T03:25:57;6.70;99.90
3246;DHT22;1635;48.000;10.582;2022-11-18T03:29:04;6.70;99.90
3246;DHT22;1635;48.000;10.582;2022-11-18T03:31:49;6.70;99.90
3246;DHT22;1635;48.000;10.582;2022-11-18T03:34:41;6.70;99.90
3246;DHT22;1635;48.000;10.582;2022-11-18T03:37:15;6.70;99.90
3246;DHT22;1635;48.000;10.582;2022-11-18T03:39:52;6.60;99.90
3246;DHT22;1635;48.000;10.582;2022-11-18T03:42:34;6.60;99.90
3246;DHT22;1635;48.000;10.582;2022-11-18T03:45:18;6.60;99.90
3246;DHT22;1635;48.000;10.582;2022-11-18T03:47:55;6.60;99.90
3246;DHT22;1635;48.000;10.582;2022-11-18T03:50:44;6.60;99.90
3246;DHT22;1635;48.000;10.582;2022-11-18T03:53:17;6.60;99.90
3246;DHT22;1635;48.000;10.582;2022-11-18T03:55:50;6.60;99.90
3246;DHT22;1635;48.000;10.582;2022-11-18T03:58:29;6.70;99.90
3246;DHT22;1635;48.000;10.582;2022-11-18T04:01:14;6.70;99.90
3246;DHT22;1635;48.000;10.582;2022-11-18T04:03:43;6.70;99.90
3246;DHT22;1635;48.000;10.582;2022-11-18T04:06:24;6.70;99.90
3246;DHT22;1635;48.000;10.582;2022-11-18T04:08:58;6.70;99.90
3246;DHT22;1635;48.000;10.582;2022-11-18T04:11:32;6.60;99.90
3246;DHT22;1635;48.000;10.582;2022-11-18T04:14:23;6.60;99.90
3246;DHT22;1635;48.000;10.582;2022-11-18T04:16:52;6.60;99.90
3246;DHT22;1635;48.000;10.582;2022-11-18T04:19:20;6.60;99.90
3246;DHT22;1635;48.000;10.582;2022-11-18T04:21:48;6.60;99.90
3246;DHT22;1635;48.000;10.582;2022-11-18T04:24:19;6.70;99.90
3246;DHT22;1635;48.000;10.582;2022-11-18T04:26:47;6.70;99.90
3246;DHT22;1635;48.000;10.582;2022-11-18T04:29:14;6.70;99.90
3246;DHT22;1635;48.000;10.582;2022-11-18T04:31:42;6.70;99.90
3246;DHT22;1635;48.000;10.582;2022-11-18T04:34:10;6.70;99.90
3246;DHT22;1635;48.000;10.582;2022-11-18T04:36:38;6.70;99.90
3246;DHT22;1635;48.000;10.582;2022-11-18T04:39:06;6.70;99.90
3246;DHT22;1635;48.000;10.582;2022-11-18T04:41:33;6.70;99.90
3246;DHT22;1635;48.000;10.582;2022-11-18T04:44:25;6.80;99.90
3246;DHT22;1635;48.000;10.582;2022-11-18T04:46:54;6.70;99.90
3246;DHT22;1635;48.000;10.582;2022-11-18T04:49:22;6.70;99.90
3246;DHT22;1635;48.000;10.582;2022-11-18T04:51:51;6.70;99.90
3246;DHT22;1635;48.000;10.582;2022-11-18T04:54:19;6.70;99.90
3246;DHT22;1635;48.000;10.582;2022-11-18T04:56:47;6.70;99.90
3246;DHT22;1635;48.000;10.582;2022-11-18T04:59:20;6.70;99.90
3246;DHT22;1635;48.000;10.582;2022-11-18T05:01:48;6.70;99.90
3246;DHT22;1635;48.000;10.582;2022-11-18T05:04:22;6.70;99.90
3246;DHT22;1635;48.000;10.582;2022-11-18T05:06:50;6.70;99.90
3246;DHT22;1635;48.000;10.582;2022-11-18T05:09:18;6.70;99.90
3246;DHT22;1635;48.000;10.582;2022-11-18T05:11:47;6.70;99.90
3246;DHT22;1635;48.000;10.582;2022-11-18T05:14:33;6.80;99.90
3246;DHT22;1635;48.000;10.582;2022-11-18T05:17:06;6.80;99.90
3246;DHT22;1635;48.000;10.582;2022-11-18T05:19:36;6.80;99.90
3246;DHT22;1635;48.000;10.582;2022-11-18T05:22:05;6.80;99.90
3246;DHT22;1635;48.000;10.582;2022-11-18T05:24:35;6.80;99.90
3246;DHT22;1635;48.000;10.582;2022-11-18T05:27:02;6.80;99.90
3246;DHT22;1635;48.000;10.582;2022-11-18T05:29:32;6.80;99.90
3246;DHT22;1635;48.000;10.582;2022-11-18T05:32:00;6.80;99.90
3246;DHT22;1635;48.000;10.582;2022-11-18T05:34:29;6.80;99.90
3246;DHT22;1635;48.000;10.582;2022-11-18T05:36:57;6.70;99.90
3246;DHT22;1635;48.000;10.582;2022-11-18T05:39:25;6.70;99.90
3246;DHT22;1635;48.000;10.582;2022-11-18T05:41:53;6.70;99.90
3246;DHT22;1635;48.000;10.582;2022-11-18T05:44:40;6.70;99.90
3246;DHT22;1635;48.000;10.582;2022-11-18T05:47:07;6.70;99.90
3246;DHT22;1635;48.000;10.582;2022-11-18T05:49:35;6.70;99.90
3246;DHT22;1635;48.000;10.582;2022-11-18T05:52:03;6.70;99.90
3246;DHT22;1635;48.000;10.582;2022-11-18T05:54:30;6.70;99.90
3246;DHT22;1635;48.000;10.582;2022-11-18T05:56:58;6.70;99.90
3246;DHT22;1635;48.000;10.582;2022-11-18T05:59:28;6.70;99.90
3246;DHT22;1635;48.000;10.582;2022-11-18T06:02:06;6.70;99.90
3246;DHT22;1635;48.000;10.582;2022-11-18T06:04:57;6.70;99.90
3246;DHT22;1635;48.000;10.582;2022-11-18T06:07:31;6.70;99.90
3246;DHT22;1635;48.000;10.582;2022-11-18T06:10:03;6.70;99.90
3246;DHT22;1635;48.000;10.582;2022-11-18T06:12:38;6.70;99.90
3246;DHT22;1635;48.000;10.582;2022-11-18T06:15:20;6.70;99.90
3246;DHT22;1635;48.000;10.582;2022-11-18T06:17:53;6.70;99.90
3246;DHT22;1635;48.000;10.582;2022-11-18T06:20:22;6.70;99.90
3246;DHT22;1635;48.000;10.582;2022-11-18T06:22:53;6.70;99.90
3246;DHT22;1635;48.000;10.582;2022-11-18T06:25:24;6.70;99.90
3246;DHT22;1635;48.000;10.582;2022-11-18T06:27:56;6.70;99.90
3246;DHT22;1635;48.000;10.582;2022-11-18T06:30:26;6.70;99.90
3246;DHT22;1635;48.000;10.582;2022-11-18T06:32:53;6.70;99.90
3246;DHT22;1635;48.000;10.582;2022-11-18T06:35:21;6.70;99.90
3246;DHT22;1635;48.000;10.582;2022-11-18T06:37:49;6.60;99.90
3246;DHT22;1635;48.000;10.582;2022-11-18T06:40:17;6.60;99.90
3246;DHT22;1635;48.000;10.582;2022-11-18T06:42:44;6.60;99.90
3246;DHT22;1635;48.000;10.582;2022-11-18T06:45:31;6.60;99.90
3246;DHT22;1635;48.000;10.582;2022-11-18T06:48:00;6.60;99.90
3246;DHT22;1635;48.000;10.582;2022-11-18T06:50:30;6.60;99.90
3246;DHT22;1635;48.000;10.582;2022-11-18T06:52:59;6.60;99.90
3246;DHT22;1635;48.000;10.582;2022-11-18T06:55:30;6.70;99.90
3246;DHT22;1635;48.000;10.582;2022-11-18T06:57:57;6.70;99.90
3246;DHT22;1635;48.000;10.582;2022-11-18T07:00:25;6.70;99.90
3246;DHT22;1635;48.000;10.582;2022-11-18T07:02:53;6.70;99.90
3246;DHT22;1635;48.000;10.582;2022-11-18T07:05:23;6.70;99.90
3246;DHT22;1635;48.000;10.582;2022-11-18T07:07:51;6.70;99.90
3246;DHT22;1635;48.000;10.582;2022-11-18T07:10:18;6.80;99.90
3246;DHT22;1635;48.000;10.582;2022-11-18T07:12:46;6.80;99.90
3246;DHT22;1635;48.000;10.582;2022-11-18T07:15:15;6.80;99.90
3246;DHT22;1635;48.000;10.582;2022-11-18T07:17:43;6.80;99.90
3246;DHT22;1635;48.000;10.582;2022-11-18T07:20:11;6.90;99.90
3246;DHT22;1635;48.000;10.582;2022-11-18T07:22:39;6.90;99.90
3246;DHT22;1635;48.000;10.582;2022-11-18T07:25:07;6.90;99.90
3246;DHT22;1635;48.000;10.582;2022-11-18T07:27:35;6.90;99.90
3246;DHT22;1635;48.000;10.582;2022-11-18T07:30:03;6.90;99.90
3246;DHT22;1635;48.000;10.582;2022-11-18T07:32:32;6.90;99.90
3246;DHT22;1635;48.000;10.582;2022-11-18T07:35:05;6.90;99.90
3246;DHT22;1635;48.000;10.582;2022-11-18T07:37:33;7.00;99.90
3246;DHT22;1635;48.000;10.582;2022-11-18T07:40:04;7.00;99.90
3246;DHT22;1635;48.000;10.582;2022-11-18T07:42:32;7.00;99.90
3246;DHT22;1635;48.000;10.582;2022-11-18T07:45:22;7.00;99.90
3246;DHT22;1635;48.000;10.582;2022-11-18T07:47:50;7.00;99.90
3246;DHT22;1635;48.000;10.582;2022-11-18T07:50:18;7.00;99.90
3246;DHT22;1635;48.000;10.582;2022-11-18T07:52:47;7.00;99.90
3246;DHT22;1635;48.000;10.582;2022-11-18T07:55:16;7.10;99.90
3246;DHT22;1635;48.000;10.582;2022-11-18T07:57:42;7.10;99.90
3246;DHT22;1635;48.000;10.582;2022-11-18T08:00:13;7.10;99.90
3246;DHT22;1635;48.000;10.582;2022-11-18T08:02:41;7.10;99.90
3246;DHT22;1635;48.000;10.582;2022-11-18T08:05:10;7.10;99.90
3246;DHT22;1635;48.000;10.582;2022-11-18T08:07:45;7.20;99.90
3246;DHT22;1635;48.000;10.582;2022-11-18T08:10:13;7.30;99.90
3246;DHT22;1635;48.000;10.582;2022-11-18T08:12:43;7.30;99.90
3246;DHT22;1635;48.000;10.582;2022-11-18T08:15:11;7.30;99.90
3246;DHT22;1635;48.000;10.582;2022-11-18T08:17:39;7.30;99.90
3246;DHT22;1635;48.000;10.582;2022-11-18T08:20:08;7.30;99.90
3246;DHT22;1635;48.000;10.582;2022-11-18T08:22:37;7.30;99.90
3246;DHT22;1635;48.000;10.582;2022-11-18T08:25:06;7.50;99.90
3246;DHT22;1635;48.000;10.582;2022-11-18T08:27:34;7.50;99.90
3246;DHT22;1635;48.000;10.582;2022-11-18T08:30:03;7.70;99.90
3246;DHT22;1635;48.000;10.582;2022-11-18T08:32:30;7.90;99.90
3246;DHT22;1635;48.000;10.582;2022-11-18T08:34:58;8.00;99.90
3246;DHT22;1635;48.000;10.582;2022-11-18T08:37:28;8.10;99.90
3246;DHT22;1635;48.000;10.582;2022-11-18T08:39:56;8.10;99.90
3246;DHT22;1635;48.000;10.582;2022-11-18T08:42:24;8.00;99.90
3246;DHT22;1635;48.000;10.582;2022-11-18T08:45:00;8.00;99.90
3246;DHT22;1635;48.000;10.582;2022-11-18T08:47:31;8.00;99.90
3246;DHT22;1635;48.000;10.582;2022-11-18T08:49:59;8.10;99.90
3246;DHT22;1635;48.000;10.582;2022-11-18T08:52:31;8.00;99.90
3246;DHT22;1635;48.000;10.582;2022-11-18T08:55:01;8.00;99.90
3246;DHT22;1635;48.000;10.582;2022-11-18T08:57:30;7.90;99.90
3246;DHT22;1635;48.000;10.582;2022-11-18T08:59:58;7.90;99.90
3246;DHT22;1635;48.000;10.582;2022-11-18T09:02:26;8.00;99.90
3246;DHT22;1635;48.000;10.582;2022-11-18T09:04:56;8.20;99.90
3246;DHT22;1635;48.000;10.582;2022-11-18T09:07:24;8.20;99.90
3246;DHT22;1635;48.000;10.582;2022-11-18T09:09:52;8.30;99.90
3246;DHT22;1635;48.000;10.582;2022-11-18T09:12:19;8.50;99.90
3246;DHT22;1635;48.000;10.582;2022-11-18T09:14:47;8.60;99.90
3246;DHT22;1635;48.000;10.582;2022-11-18T09:17:35;8.60;99.90
3246;DHT22;1635;48.000;10.582;2022-11-18T09:20:02;8.70;99.90
3246;DHT22;1635;48.000;10.582;2022-11-18T09:22:30;8.90;99.90
3246;DHT22;1635;48.000;10.582;2022-11-18T09:24:58;9.10;99.90
3246;DHT22;1635;48.000;10.582;2022-11-18T09:27:26;9.30;99.90
3246;DHT22;1635;48.000;10.582;2022-11-18T09:29:53;9.10;99.90
3246;DHT22;1635;48.000;10.582;2022-11-18T09:32:21;9.00;99.90
3246;DHT22;1635;48.000;10.582;2022-11-18T09:34:49;8.90;99.90
3246;DHT22;1635;48.000;10.582;2022-11-18T09:37:17;8.90;99.90
3246;DHT22;1635;48.000;10.582;2022-11-18T09:39:45;8.90;99.90
3246;DHT22;1635;48.000;10.582;2022-11-18T09:45:26;8.90;99.90
3246;DHT22;1635;48.000;10.582;2022-11-18T09:47:59;8.70;99.90
3246;DHT22;1635;48.000;10.582;2022-11-18T09:50:29;8.40;99.90
3246;DHT22;1635;48.000;10.582;2022-11-18T09:53:24;8.20;99.90
3246;DHT22;1635;48.000;10.582;2022-11-18T09:55:53;7.80;99.90
3246;DHT22;1635;48.000;10.582;2022-11-18T09:58:35;7.60;99.90
3246;DHT22;1635;48.000;10.582;2022-11-18T10:01:12;7.60;99.90
3246;DHT22;1635;48.000;10.582;2022-11-18T10:03:43;7.40;99.90
3246;DHT22;1635;48.000;10.582;2022-11-18T10:06:42;7.40;99.90
3246;DHT22;1635;48.000;10.582;2022-11-18T10:09:32;7.40;99.90
3246;DHT22;1635;48.000;10.582;2022-11-18T10:15:21;7.40;99.90
3246;DHT22;1635;48.000;10.582;2022-11-18T10:24:25;7.50;99.90
3246;DHT22;1635;48.000;10.582;2022-11-18T10:26:56;7.60;99.90
3246;DHT22;1635;48.000;10.582;2022-11-18T10:29:25;7.80;99.90
3246;DHT22;1635;48.000;10.582;2022-11-18T10:32:02;8.10;99.90
3246;DHT22;1635;48.000;10.582;2022-11-18T10:34:34;8.20;99.90
3246;DHT22;1635;48.000;10.582;2022-11-18T10:37:12;8.30;99.90
3246;DHT22;1635;48.000;10.582;2022-11-18T10:39:57;8.30;99.90
3246;DHT22;1635;48.000;10.582;2022-11-18T10:42:43;8.30;99.90
3246;DHT22;1635;48.000;10.582;2022-11-18T10:45:31;8.10;99.90
3246;DHT22;1635;48.000;10.582;2022-11-18T10:48:18;8.00;99.90
3246;DHT22;1635;48.000;10.582;2022-11-18T10:50:48;8.10;99.90
3246;DHT22;1635;48.000;10.582;2022-11-18T10:53:35;8.20;99.90
3246;DHT22;1635;48.000;10.582;2022-11-18T10:56:06;8.20;99.90
3246;DHT22;1635;48.000;10.582;2022-11-18T10:58:40;8.10;99.90
3246;DHT22;1635;48.000;10.582;2022-11-18T11:01:26;8.10;99.90
3246;DHT22;1635;48.000;10.582;2022-11-18T11:06:43;8.20;99.90
3246;DHT22;1635;48.000;10.582;2022-11-18T11:09:25;8.20;99.90
3246;DHT22;1635;48.000;10.582;2022-11-18T11:12:02;8.10;99.90
3246;DHT22;1635;48.000;10.582;2022-11-18T11:15:10;8.10;99.90
3246;DHT22;1635;48.000;10.582;2022-11-18T11:17:44;8.10;99.90
3246;DHT22;1635;48.000;10.582;2022-11-18T11:20:23;8.10;99.90
3246;DHT22;1635;48.000;10.582;2022-11-18T11:22:51;7.90;99.90
3246;DHT22;1635;48.000;10.582;2022-11-18T11:28:07;8.10;99.90
3246;DHT22;1635;48.000;10.582;2022-11-18T11:30:58;8.10;99.90
3246;DHT22;1635;48.000;10.582;2022-11-18T11:33:46;8.10;99.90
3246;DHT22;1635;48.000;10.582;2022-11-18T11:48:21;7.70;99.90
3246;DHT22;1635;48.000;10.582;2022-11-18T11:51:03;7.70;99.90
3246;DHT22;1635;48.000;10.582;2022-11-18T11:54:10;7.70;99.90
3246;DHT22;1635;48.000;10.582;2022-11-18T11:57:04;7.70;99.90
3246;DHT22;1635;48.000;10.582;2022-11-18T12:05:36;7.30;99.90
3246;DHT22;1635;48.000;10.582;2022-11-18T12:08:24;7.30;99.90
3246;DHT22;1635;48.000;10.582;2022-11-18T12:11:12;7.30;99.90
3246;DHT22;1635;48.000;10.582;2022-11-18T12:16:44;7.20;99.90
3246;DHT22;1635;48.000;10.582;2022-11-18T12:19:21;7.20;99.90
3246;DHT22;1635;48.000;10.582;2022-11-18T12:21:54;7.10;99.90
3246;DHT22;1635;48.000;10.582;2022-11-18T12:24:38;7.10;99.90
3246;DHT22;1635;48.000;10.582;2022-11-18T12:30:02;7.10;99.90
3246;DHT22;1635;48.000;10.582;2022-11-18T12:32:40;7.00;99.90
3246;DHT22;1635;48.000;10.582;2022-11-18T12:46:46;7.20;99.90
3246;DHT22;1635;48.000;10.582;2022-11-18T12:51:59;7.40;99.90
3246;DHT22;1635;48.000;10.582;2022-11-18T12:54:45;7.50;99.90
3246;DHT22;1635;48.000;10.582;2022-11-18T12:57:22;7.50;99.90
3246;DHT22;1635;48.000;10.582;2022-11-18T12:59:51;7.50;99.90
3246;DHT22;1635;48.000;10.582;2022-11-18T13:02:23;7.40;99.90
3246;DHT22;1635;48.000;10.582;2022-11-18T13:05:11;7.30;99.90
3246;DHT22;1635;48.000;10.582;2022-11-18T13:07:53;7.20;99.90
3246;DHT22;1635;48.000;10.582;2022-11-18T13:10:50;7.20;99.90
3246;DHT22;1635;48.000;10.582;2022-11-18T13:13:29;7.10;99.90
3246;DHT22;1635;48.000;10.582;2022-11-18T13:16:23;7.10;99.90
3246;DHT22;1635;48.000;10.582;2022-11-18T13:19:08;7.00;99.90
3246;DHT22;1635;48.000;10.582;2022-11-18T13:21:56;7.00;99.90
3246;DHT22;1635;48.000;10.582;2022-11-18T13:24:49;7.00;99.90
3246;DHT22;1635;48.000;10.582;2022-11-18T13:27:47;6.90;99.90
3246;DHT22;1635;48.000;10.582;2022-11-18T13:30:16;6.90;99.90
3246;DHT22;1635;48.000;10.582;2022-11-18T13:32:47;7.00;99.90
3246;DHT22;1635;48.000;10.582;2022-11-18T13:35:18;6.90;99.90
3246;DHT22;1635;48.000;10.582;2022-11-18T13:40:28;6.60;99.90
3246;DHT22;1635;48.000;10.582;2022-11-18T13:42:57;6.60;99.90
3246;DHT22;1635;48.000;10.582;2022-11-18T13:45:26;6.60;99.90
3246;DHT22;1635;48.000;10.582;2022-11-18T13:48:11;6.50;99.90
3246;DHT22;1635;48.000;10.582;2022-11-18T13:50:46;6.40;99.90
3246;DHT22;1635;48.000;10.582;2022-11-18T13:56:24;6.30;99.90
3246;DHT22;1635;48.000;10.582;2022-11-18T13:59:01;6.30;99.90
3246;DHT22;1635;48.000;10.582;2022-11-18T14:01:53;6.40;99.90
3246;DHT22;1635;48.000;10.582;2022-11-18T14:04:30;6.40;99.90
3246;DHT22;1635;48.000;10.582;2022-11-18T14:07:30;6.50;99.90
3246;DHT22;1635;48.000;10.582;2022-11-18T14:10:05;6.70;99.90
3246;DHT22;1635;48.000;10.582;2022-11-18T14:12:36;6.70;99.90
3246;DHT22;1635;48.000;10.582;2022-11-18T14:17:58;7.20;99.90
3246;DHT22;1635;48.000;10.582;2022-11-18T14:20:29;8.00;99.90
3246;DHT22;1635;48.000;10.582;2022-11-18T14:23:01;8.70;99.90
3246;DHT22;1635;48.000;10.582;2022-11-18T14:25:34;9.20;99.90
3246;DHT22;1635;48.000;10.582;2022-11-18T14:31:00;9.60;99.90
3246;DHT22;1635;48.000;10.582;2022-11-18T14:33:33;10.00;99.90
3246;DHT22;1635;48.000;10.582;2022-11-18T14:36:14;10.00;99.90
3246;DHT22;1635;48.000;10.582;2022-11-18T14:38:50;10.00;99.90
3246;DHT22;1635;48.000;10.582;2022-11-18T14:41:38;10.20;99.90
3246;DHT22;1635;48.000;10.582;2022-11-18T14:44:16;10.10;99.90
3246;DHT22;1635;48.000;10.582;2022-11-18T14:46:48;9.70;99.90
3246;DHT22;1635;48.000;10.582;2022-11-18T14:49:21;9.40;99.90
3246;DHT22;1635;48.000;10.582;2022-11-18T14:51:51;9.00;99.90
3246;DHT22;1635;48.000;10.582;2022-11-18T14:54:22;9.00;99.90
3246;DHT22;1635;48.000;10.582;2022-11-18T14:57:03;8.90;99.90
3246;DHT22;1635;48.000;10.582;2022-11-18T14:59:32;8.70;99.90
3246;DHT22;1635;48.000;10.582;2022-11-18T15:02:00;8.20;99.90
3246;DHT22;1635;48.000;10.582;2022-11-18T15:04:31;8.00;99.90
3246;DHT22;1635;48.000;10.582;2022-11-18T15:06:59;7.70;99.90
3246;DHT22;1635;48.000;10.582;2022-11-18T15:09:29;7.50;99.90
3246;DHT22;1635;48.000;10.582;2022-11-18T15:11:57;7.30;99.90
3246;DHT22;1635;48.000;10.582;2022-11-18T15:14:25;7.00;99.90
3246;DHT22;1635;48.000;10.582;2022-11-18T15:16:53;6.80;99.90
3246;DHT22;1635;48.000;10.582;2022-11-18T15:19:23;6.60;99.90
3246;DHT22;1635;48.000;10.582;2022-11-18T15:21:52;6.40;99.90
3246;DHT22;1635;48.000;10.582;2022-11-18T15:24:20;6.20;99.90
3246;DHT22;1635;48.000;10.582;2022-11-18T15:26:48;6.10;99.90
3246;DHT22;1635;48.000;10.582;2022-11-18T15:29:21;6.00;99.90
3246;DHT22;1635;48.000;10.582;2022-11-18T15:31:50;6.00;99.90
3246;DHT22;1635;48.000;10.582;2022-11-18T15:34:20;5.90;99.90
3246;DHT22;1635;48.000;10.582;2022-11-18T15:36:49;5.90;99.90
3246;DHT22;1635;48.000;10.582;2022-11-18T15:39:18;5.80;99.90
3246;DHT22;1635;48.000;10.582;2022-11-18T15:41:46;5.80;99.90
3246;DHT22;1635;48.000;10.582;2022-11-18T15:44:14;5.80;99.90
3246;DHT22;1635;48.000;10.582;2022-11-18T15:46:44;5.80;99.90
3246;DHT22;1635;48.000;10.582;2022-11-18T15:49:15;5.80;99.90
3246;DHT22;1635;48.000;10.582;2022-11-18T15:51:46;5.90;99.90
3246;DHT22;1635;48.000;10.582;2022-11-18T15:54:15;5.80;99.90
3246;DHT22;1635;48.000;10.582;2022-11-18T15:56:45;5.70;99.90
3246;DHT22;1635;48.000;10.582;2022-11-18T15:59:15;5.70;99.90
3246;DHT22;1635;48.000;10.582;2022-11-18T16:01:48;5.60;99.90
3246;DHT22;1635;48.000;10.582;2022-11-18T16:04:17;5.70;99.90
3246;DHT22;1635;48.000;10.582;2022-11-18T16:06:46;5.80;99.90
3246;DHT22;1635;48.000;10.582;2022-11-18T16:09:14;5.80;99.90
3246;DHT22;1635;48.000;10.582;2022-11-18T16:11:44;5.90;99.90
3246;DHT22;1635;48.000;10.582;2022-11-18T16:14:31;5.90;99.90
3246;DHT22;1635;48.000;10.582;2022-11-18T16:17:02;5.90;99.90
3246;DHT22;1635;48.000;10.582;2022-11-18T16:19:32;5.90;99.90
3246;DHT22;1635;48.000;10.582;2022-11-18T16:22:01;5.90;99.90
3246;DHT22;1635;48.000;10.582;2022-11-18T16:24:31;6.00;99.90
3246;DHT22;1635;48.000;10.582;2022-11-18T16:26:59;5.90;99.90
3246;DHT22;1635;48.000;10.582;2022-11-18T16:29:31;5.80;99.90
3246;DHT22;1635;48.000;10.582;2022-11-18T16:31:59;5.80;99.90
3246;DHT22;1635;48.000;10.582;2022-11-18T16:34:29;5.80;99.90
3246;DHT22;1635;48.000;10.582;2022-11-18T16:36:58;5.80;99.90
3246;DHT22;1635;48.000;10.582;2022-11-18T16:39:34;5.80;99.90
3246;DHT22;1635;48.000;10.582;2022-11-18T16:42:10;5.90;99.90
3246;DHT22;1635;48.000;10.582;2022-11-18T16:44:38;5.90;99.90
3246;DHT22;1635;48.000;10.582;2022-11-18T16:47:06;5.90;99.90
3246;DHT22;1635;48.000;10.582;2022-11-18T16:49:42;5.80;99.90
3246;DHT22;1635;48.000;10.582;2022-11-18T16:52:11;5.80;99.90
3246;DHT22;1635;48.000;10.582;2022-11-18T16:54:41;5.70;99.90
3246;DHT22;1635;48.000;10.582;2022-11-18T16:57:12;5.80;99.90
3246;DHT22;1635;48.000;10.582;2022-11-18T16:59:41;5.70;99.90
3246;DHT22;1635;48.000;10.582;2022-11-18T17:02:11;5.80;99.90
3246;DHT22;1635;48.000;10.582;2022-11-18T17:04:44;5.80;99.90
3246;DHT22;1635;48.000;10.582;2022-11-18T17:07:12;5.80;99.90
3246;DHT22;1635;48.000;10.582;2022-11-18T17:09:41;5.80;99.90
3246;DHT22;1635;48.000;10.582;2022-11-18T17:12:08;5.80;99.90
3246;DHT22;1635;48.000;10.582;2022-11-18T17:14:36;5.80;99.90
3246;DHT22;1635;48.000;10.582;2022-11-18T17:17:07;5.80;99.90
3246;DHT22;1635;48.000;10.582;2022-11-18T17:19:34;5.80;99.90
3246;DHT22;1635;48.000;10.582;2022-11-18T17:22:08;5.80;99.90
3246;DHT22;1635;48.000;10.582;2022-11-18T17:24:36;5.70;99.90
3246;DHT22;1635;48.000;10.582;2022-11-18T17:27:05;5.70;99.90
3246;DHT22;1635;48.000;10.582;2022-11-18T17:29:34;5.60;99.90
3246;DHT22;1635;48.000;10.582;2022-11-18T17:32:20;5.60;99.90
3246;DHT22;1635;48.000;10.582;2022-11-18T17:34:48;5.60;99.90
3246;DHT22;1635;48.000;10.582;2022-11-18T17:37:21;5.60;99.90
3246;DHT22;1635;48.000;10.582;2022-11-18T17:39:49;5.70;99.90
3246;DHT22;1635;48.000;10.582;2022-11-18T17:45:57;5.70;99.90
3246;DHT22;1635;48.000;10.582;2022-11-18T17:48:30;5.70;99.90
3246;DHT22;1635;48.000;10.582;2022-11-18T17:51:05;5.70;99.90
3246;DHT22;1635;48.000;10.582;2022-11-18T17:53:33;5.70;99.90
3246;DHT22;1635;48.000;10.582;2022-11-18T17:56:06;5.70;99.90
3246;DHT22;1635;48.000;10.582;2022-11-18T17:58:34;5.80;99.90
3246;DHT22;1635;48.000;10.582;2022-11-18T18:01:12;5.80;99.90
3246;DHT22;1635;48.000;10.582;2022-11-18T18:03:43;5.80;99.90
3246;DHT22;1635;48.000;10.582;2022-11-18T18:06:12;5.80;99.90
3246;DHT22;1635;48.000;10.582;2022-11-18T18:08:40;5.80;99.90